Time;durP1;ratioP1;P1;durP2;ratioP2;P2;SDS_P1;SDS_P2;PMS_P1;PMS_P2;Temp;Humidity;BMP_temperature;BMP_pressure;BME280_temperature;BME280_humidity;BME280_pressure;Samples;Min_cycle;Max_cycle;Signal;HPM_P1;HPM_P2
2022/07/04 00:02:17;;;;;;;2.33;1.30;;;;;;;19.94;61.15;97523.34;5018394;28;20387;-67
2022/07/04 00:04:44;;;;;;;2.72;1.20;;;;;;;19.93;61.44;97521.72;5010909;28;20092;-66
2022/07/04 00:07:11;;;;;;;4.82;1.48;;;;;;;19.98;61.20;97529.84;5038360;28;20124;-67
2022/07/04 00:09:38;;;;;;;2.53;1.40;;;;;;;20.01;61.10;97523.72;5034922;28;20489;-67
2022/07/04 00:12:05;;;;;;;2.50;1.20;;;;;;;19.95;61.07;97517.53;5030393;28;20049;-66
2022/07/04 00:14:31;;;;;;;2.70;1.40;;;;;;;19.93;61.49;97513.47;5027498;28;20045;-67
2022/07/04 00:16:58;;;;;;;12.40;3.33;;;;;;;19.75;61.64;97511.38;5009866;28;20046;-67
2022/07/04 00:19:24;;;;;;;5.60;1.50;;;;;;;19.61;61.81;97503.16;5010224;28;20050;-66
2022/07/04 00:21:51;;;;;;;4.63;1.70;;;;;;;19.65;61.63;97499.81;5009792;28;20065;-67
2022/07/04 00:24:18;;;;;;;3.90;1.40;;;;;;;19.66;61.99;97499.50;5030652;28;20045;-67
2022/07/04 00:26:44;;;;;;;3.58;1.30;;;;;;;19.70;61.63;97510.66;5043740;28;20041;-67
2022/07/04 00:29:11;;;;;;;2.65;1.55;;;;;;;19.69;62.11;97507.13;5008834;28;20054;-67
2022/07/04 00:31:37;;;;;;;5.05;1.50;;;;;;;19.56;62.00;97511.50;5009432;28;20053;-67
2022/07/04 00:34:05;;;;;;;5.15;1.58;;;;;;;19.50;62.41;97519.03;5009448;28;20050;-67
2022/07/04 00:36:32;;;;;;;2.45;1.30;;;;;;;19.54;62.54;97513.78;5013333;28;20041;-67
2022/07/04 00:38:58;;;;;;;3.85;1.40;;;;;;;19.58;62.42;97513.94;5023320;28;20057;-67
2022/07/04 00:41:26;;;;;;;4.93;1.50;;;;;;;19.48;62.49;97524.03;5029893;28;20209;-67
2022/07/04 00:44:20;;;;;;;2.38;1.17;;;;;;;19.44;62.10;97516.72;5028269;28;20045;-67
2022/07/04 00:46:47;;;;;;;4.78;1.52;;;;;;;19.47;61.70;97525.13;5009245;28;20058;-67
2022/07/04 00:49:15;;;;;;;4.03;1.50;;;;;;;19.36;62.21;97524.53;5009100;28;20048;-67
2022/07/04 00:51:43;;;;;;;5.40;1.17;;;;;;;19.30;62.44;97527.69;5025830;28;20064;-67
2022/07/04 00:54:12;;;;;;;4.13;1.52;;;;;;;19.34;62.61;97523.22;5029138;28;20137;-67
2022/07/04 00:56:40;;;;;;;2.10;1.20;;;;;;;19.36;62.33;97526.50;5024301;28;20042;-67
2022/07/04 00:59:07;;;;;;;2.42;1.35;;;;;;;19.40;62.06;97527.50;5032734;28;20052;-67
2022/07/04 01:01:35;;;;;;;3.75;1.40;;;;;;;19.41;61.90;97533.78;5028157;28;20053;-67
2022/07/04 01:04:04;;;;;;;2.92;1.23;;;;;;;19.32;61.98;97531.75;5008782;28;20056;-67
2022/07/04 01:06:31;;;;;;;3.05;1.50;;;;;;;19.12;62.56;97529.44;5028025;28;20424;-67
2022/07/04 01:08:59;;;;;;;3.90;1.17;;;;;;;19.15;62.68;97528.81;5025577;28;20510;-67
2022/07/04 01:11:28;;;;;;;3.33;1.48;;;;;;;19.06;62.99;97524.03;5048625;28;20493;-68
2022/07/04 01:13:56;;;;;;;2.43;1.50;;;;;;;19.00;63.24;97527.97;5024413;28;20043;-67
2022/07/04 01:16:25;;;;;;;3.88;1.40;;;;;;;18.93;63.22;97524.81;5020795;28;20390;-67
2022/07/04 01:18:53;;;;;;;4.90;1.92;;;;;;;18.90;63.52;97517.22;5007049;28;20044;-66
2022/07/04 01:21:20;;;;;;;2.40;1.38;;;;;;;18.82;63.47;97518.72;5008182;28;20056;-66
2022/07/04 01:23:47;;;;;;;3.67;1.27;;;;;;;18.76;63.94;97523.47;5008100;28;20042;-67
2022/07/04 01:26:13;;;;;;;4.85;1.80;;;;;;;18.67;64.66;97517.88;5009227;28;20038;-66
2022/07/04 01:28:40;;;;;;;4.22;1.30;;;;;;;18.59;65.17;97521.31;5019204;28;20160;-67
2022/07/04 01:31:07;;;;;;;3.38;1.80;;;;;;;18.62;64.64;97525.38;5028463;28;20045;-67
2022/07/04 01:33:34;;;;;;;3.28;1.48;;;;;;;18.67;64.59;97528.03;5028809;28;20080;-67
2022/07/04 01:36:00;;;;;;;3.75;1.40;;;;;;;18.66;63.90;97523.66;5028613;28;20068;-67
2022/07/04 01:38:27;;;;;;;6.50;1.45;;;;;;;18.58;64.60;97530.66;5027837;28;20048;-67
2022/07/04 01:40:53;;;;;;;7.95;2.30;;;;;;;18.56;64.67;97528.22;5028618;28;20049;-67
2022/07/04 01:43:20;;;;;;;3.97;1.55;;;;;;;18.48;65.42;97537.13;5014085;28;20536;-67
2022/07/04 01:45:47;;;;;;;5.28;1.83;;;;;;;18.42;65.79;97538.31;5007980;28;20054;-67
2022/07/04 01:48:15;;;;;;;2.47;1.45;;;;;;;18.29;66.56;97535.25;5007665;28;20034;-67
2022/07/04 01:50:42;;;;;;;4.75;1.40;;;;;;;18.25;66.40;97550.66;5023852;28;20488;-67
2022/07/04 01:53:08;;;;;;;3.85;1.40;;;;;;;18.38;66.26;97549.06;5048219;28;20493;-67
2022/07/04 01:55:35;;;;;;;5.30;1.50;;;;;;;18.42;65.99;97549.28;5013024;28;20049;-67
2022/07/04 01:58:02;;;;;;;4.03;1.50;;;;;;;18.34;65.07;97561.75;5008278;28;20516;-67
2022/07/04 02:03:14;;;;;;;2.97;1.50;;;;;;;18.27;66.39;97553.91;5017977;28;20067;-67
2022/07/04 02:05:42;;;;;;;5.55;1.65;;;;;;;18.19;65.88;97544.44;5007929;28;20496;-67
2022/07/04 02:08:10;;;;;;;2.70;1.40;;;;;;;18.22;66.61;97550.44;5011766;28;20455;-67
2022/07/04 02:10:36;;;;;;;4.95;1.80;;;;;;;18.15;66.55;97557.09;5008099;28;20068;-67
2022/07/04 02:13:03;;;;;;;2.85;1.55;;;;;;;18.14;67.11;97562.88;5007437;28;20034;-67
2022/07/04 02:15:36;;;;;;;5.68;2.05;;;;;;;18.01;67.78;97556.19;5006889;28;20049;-67
2022/07/04 02:18:04;;;;;;;2.92;1.50;;;;;;;17.99;66.96;97552.94;5006524;28;20048;-67
2022/07/04 02:20:31;;;;;;;4.50;1.60;;;;;;;17.99;67.44;97561.94;5008216;28;20050;-66
2022/07/04 02:22:58;;;;;;;6.82;1.88;;;;;;;17.96;67.75;97564.47;5008100;28;20042;-67
2022/07/04 02:25:25;;;;;;;3.33;1.50;;;;;;;18.00;68.14;97566.34;5007503;28;20046;-67
2022/07/04 02:27:54;;;;;;;5.88;1.45;;;;;;;18.02;67.47;97566.06;5008013;28;20093;-68
2022/07/04 02:30:21;;;;;;;5.05;1.70;;;;;;;17.95;67.46;97571.91;5007264;28;20330;-68
2022/07/04 02:32:47;;;;;;;2.78;1.27;;;;;;;17.99;67.22;97575.66;5006964;28;20049;-67
2022/07/04 02:35:14;;;;;;;3.95;1.33;;;;;;;18.06;66.77;97576.09;5007637;28;20046;-67
2022/07/04 02:37:41;;;;;;;4.32;1.65;;;;;;;17.94;67.30;97571.06;5023135;28;20053;-66
2022/07/04 02:40:09;;;;;;;2.90;1.50;;;;;;;17.92;67.28;97583.44;5020640;28;20044;-67
2022/07/04 02:42:36;;;;;;;3.90;1.58;;;;;;;17.89;66.98;97584.84;5007692;28;20042;-67
2022/07/04 02:45:04;;;;;;;6.35;1.70;;;;;;;17.84;67.62;97581.34;5016617;28;20045;-67
2022/07/04 02:47:31;;;;;;;3.33;1.45;;;;;;;17.78;67.85;97581.44;5010396;28;20049;-67
2022/07/04 02:49:58;;;;;;;4.38;1.65;;;;;;;17.78;67.27;97589.66;5010316;28;20416;-67
2022/07/04 02:52:24;;;;;;;5.45;1.60;;;;;;;17.80;67.58;97590.16;5019699;28;20050;-67
2022/07/04 02:54:52;;;;;;;3.95;1.60;;;;;;;17.77;67.65;97585.25;5006937;28;20073;-67
2022/07/04 02:57:19;;;;;;;6.07;1.98;;;;;;;17.76;67.70;97591.06;5019416;28;20080;-66
2022/07/04 02:59:46;;;;;;;3.60;1.52;;;;;;;17.63;68.50;97587.91;5025172;28;20487;-67
2022/07/04 03:02:12;;;;;;;3.17;1.42;;;;;;;17.65;68.29;97585.69;5007081;28;20061;-67
2022/07/04 03:04:39;;;;;;;3.60;1.60;;;;;;;17.64;68.49;97591.44;5006994;28;20042;-67
2022/07/04 03:07:07;;;;;;;3.83;1.63;;;;;;;17.47;68.81;97584.53;5007530;28;20129;-67
2022/07/04 03:09:34;;;;;;;4.32;1.63;;;;;;;17.34;69.42;97582.50;5022220;28;20045;-67
2022/07/04 03:12:01;;;;;;;5.65;1.70;;;;;;;17.24;70.13;97591.63;5025722;28;20050;-67
2022/07/04 03:14:28;;;;;;;5.35;1.80;;;;;;;17.08;70.78;97596.47;5011171;28;20046;-67
2022/07/04 03:16:55;;;;;;;3.38;1.40;;;;;;;17.08;70.56;97593.72;5007095;28;20056;-66
2022/07/04 03:19:21;;;;;;;6.70;2.72;;;;;;;17.14;70.15;97598.06;5007151;28;20046;-67
2022/07/04 03:21:48;;;;;;;5.88;1.83;;;;;;;17.12;70.17;97600.25;5007147;28;20502;-67
2022/07/04 03:24:15;;;;;;;4.03;1.50;;;;;;;17.03;70.39;97605.53;5025488;28;20060;-67
2022/07/04 03:26:41;;;;;;;3.20;1.80;;;;;;;16.93;70.64;97606.44;5038958;28;20516;-66
2022/07/04 03:29:08;;;;;;;3.88;1.88;;;;;;;16.94;70.58;97608.06;5031851;28;20449;-67
2022/07/04 03:31:34;;;;;;;3.05;1.65;;;;;;;16.88;70.71;97615.50;5035606;28;20048;-67
2022/07/04 03:34:01;;;;;;;5.28;2.03;;;;;;;16.65;72.32;97614.31;5026882;28;20041;-67
2022/07/04 03:36:27;;;;;;;3.53;1.88;;;;;;;16.50;72.69;97607.06;5041452;28;20038;-67
2022/07/04 03:38:54;;;;;;;5.65;2.08;;;;;;;16.47;72.64;97611.19;5026342;28;20493;-67
2022/07/04 03:41:21;;;;;;;3.53;1.70;;;;;;;16.60;72.06;97617.09;5035423;28;20448;-67
2022/07/04 03:43:47;;;;;;;2.90;1.80;;;;;;;16.58;72.14;97609.19;5044770;28;20580;-67
2022/07/04 03:46:14;;;;;;;4.90;1.88;;;;;;;16.63;71.82;97620.06;5022524;28;20056;-66
2022/07/04 03:48:43;;;;;;;4.03;1.65;;;;;;;16.70;71.58;97616.19;5026820;28;20060;-67
2022/07/04 03:51:11;;;;;;;5.07;1.70;;;;;;;16.70;71.43;97614.28;5037714;28;20045;-67
2022/07/04 03:53:38;;;;;;;4.55;1.60;;;;;;;16.66;71.96;97610.47;5046676;28;20041;-67
2022/07/04 03:56:04;;;;;;;3.67;1.45;;;;;;;16.67;71.44;97620.34;5046400;28;20448;-66
2022/07/04 03:58:31;;;;;;;4.05;1.77;;;;;;;16.65;71.93;97619.78;5045895;28;20327;-67
2022/07/04 04:00:58;;;;;;;7.43;3.63;;;;;;;16.63;72.09;97628.25;5046535;28;20152;-67
2022/07/04 04:06:10;;;;;;;5.75;1.80;;;;;;;16.64;71.62;97621.72;5046491;28;20443;-67
2022/07/04 04:08:36;;;;;;;2.95;1.50;;;;;;;16.58;71.78;97619.31;5042220;28;20037;-66
2022/07/04 04:11:03;;;;;;;5.00;1.65;;;;;;;16.55;71.64;97630.81;5029928;28;20201;-67
2022/07/04 04:13:29;;;;;;;6.03;1.55;;;;;;;16.59;71.31;97629.13;5030244;28;20056;-67
2022/07/04 04:15:56;;;;;;;3.17;1.67;;;;;;;16.64;71.04;97626.34;5029680;28;20046;-67
2022/07/04 04:18:22;;;;;;;2.30;1.30;;;;;;;16.59;70.83;97629.13;5030251;28;20128;-67
2022/07/04 04:20:50;;;;;;;4.43;1.70;;;;;;;16.56;71.30;97643.38;5029167;28;20044;-68
2022/07/04 04:23:16;;;;;;;3.10;1.30;;;;;;;16.67;70.60;97647.66;5029989;28;20147;-67
2022/07/04 04:25:43;;;;;;;3.50;1.73;;;;;;;16.81;70.11;97655.22;5030070;28;20041;-67
2022/07/04 04:28:10;;;;;;;5.22;1.95;;;;;;;16.73;70.39;97662.91;5030161;28;20037;-67
2022/07/04 04:30:36;;;;;;;4.07;2.05;;;;;;;16.89;69.71;97660.88;5030192;28;20486;-67
2022/07/04 04:33:03;;;;;;;3.40;1.40;;;;;;;16.84;70.14;97669.13;5029460;28;20443;-67
2022/07/04 04:35:29;;;;;;;7.43;2.33;;;;;;;16.83;70.09;97677.59;5029514;28;20049;-67
2022/07/04 04:37:56;;;;;;;2.53;1.38;;;;;;;16.84;70.03;97684.72;5030375;28;20049;-67
2022/07/04 04:40:23;;;;;;;3.95;1.58;;;;;;;16.69;70.19;97683.72;5041422;28;20045;-66
2022/07/04 04:42:49;;;;;;;3.03;1.25;;;;;;;16.81;69.30;97688.03;5021900;28;20049;-67
2022/07/04 04:45:16;;;;;;;2.17;1.33;;;;;;;16.91;69.04;97682.47;5041461;28;20048;-67
2022/07/04 04:47:43;;;;;;;3.03;1.40;;;;;;;16.99;68.12;97687.31;5046166;28;20053;-67
2022/07/04 04:50:11;;;;;;;3.45;1.20;;;;;;;16.92;68.63;97691.50;5045268;28;20052;-67
2022/07/04 04:52:38;;;;;;;3.72;1.40;;;;;;;16.75;68.80;97699.00;5047284;28;20500;-68
2022/07/04 04:55:05;;;;;;;5.00;2.03;;;;;;;16.67;70.18;97694.16;5047251;28;20044;-67
2022/07/04 04:57:32;;;;;;;2.03;1.02;;;;;;;16.70;68.98;97703.69;5035412;28;20542;-66
2022/07/04 04:59:58;;;;;;;3.80;1.67;;;;;;;16.65;69.76;97701.81;5047167;28;20383;-67
2022/07/04 05:02:25;;;;;;;5.72;1.33;;;;;;;16.76;68.90;97699.81;5046658;28;20044;-67
2022/07/04 05:04:52;;;;;;;4.85;1.60;;;;;;;16.70;69.67;97704.50;5046761;28;20350;-67
2022/07/04 05:07:19;;;;;;;4.88;1.40;;;;;;;16.71;69.98;97705.31;5046647;28;20171;-67
2022/07/04 05:09:45;;;;;;;3.05;1.85;;;;;;;16.78;69.97;97709.34;5029480;28;20054;-66
2022/07/04 05:12:12;;;;;;;4.63;1.50;;;;;;;16.85;69.80;97705.50;5047453;28;20048;-67
2022/07/04 05:14:39;;;;;;;4.50;1.48;;;;;;;16.99;69.39;97702.94;5042335;28;20049;-67
2022/07/04 05:17:07;;;;;;;5.07;1.25;;;;;;;16.95;69.62;97702.66;5047169;28;20441;-67
2022/07/04 05:19:33;;;;;;;3.63;1.55;;;;;;;17.09;69.80;97708.34;5045703;28;20994;-67
2022/07/04 05:22:00;;;;;;;3.72;1.40;;;;;;;17.13;68.95;97700.38;5047208;28;20055;-67
2022/07/04 05:24:26;;;;;;;2.72;1.27;;;;;;;17.11;68.35;97703.41;5046673;28;20220;-67
2022/07/04 05:26:53;;;;;;;5.22;1.50;;;;;;;17.33;67.92;97695.81;5046509;28;20095;-67
2022/07/04 05:29:24;;;;;;;3.33;1.35;;;;;;;17.51;67.26;97694.28;5046895;28;20435;-67
2022/07/04 05:31:50;;;;;;;4.15;1.30;;;;;;;17.61;66.86;97696.91;5046452;28;20049;-66
2022/07/04 05:34:18;;;;;;;2.90;1.25;;;;;;;17.64;65.79;97687.28;5046840;28;20228;-67
2022/07/04 05:36:45;;;;;;;4.55;1.30;;;;;;;17.54;64.99;97686.28;5041131;28;20049;-67
2022/07/04 05:39:11;;;;;;;3.85;1.38;;;;;;;17.70;65.62;97686.13;5031250;28;20390;-67
2022/07/04 05:41:38;;;;;;;4.53;1.48;;;;;;;17.95;64.97;97695.16;5045315;28;20420;-67
2022/07/04 05:44:05;;;;;;;4.20;1.40;;;;;;;18.26;64.54;97688.50;5028811;28;20507;-67
2022/07/04 05:46:32;;;;;;;7.22;1.85;;;;;;;18.49;62.35;97686.81;5038281;28;20045;-67
2022/07/04 05:48:58;;;;;;;3.03;1.40;;;;;;;18.51;62.48;97689.25;5043617;28;20076;-67
2022/07/04 05:51:25;;;;;;;2.15;1.10;;;;;;;18.36;62.59;97687.53;5034810;28;20055;-66
2022/07/04 05:53:52;;;;;;;3.50;1.10;;;;;;;18.69;61.72;97691.16;5033656;28;20054;-67
2022/07/04 05:56:19;;;;;;;2.38;1.15;;;;;;;18.66;61.57;97690.94;5009863;28;20053;-66
2022/07/04 05:58:45;;;;;;;3.05;1.30;;;;;;;18.80;61.05;97680.03;5014099;28;20517;-67
2022/07/04 06:01:12;;;;;;;3.60;1.30;;;;;;;18.39;62.25;97679.53;5029180;28;20110;-67
2022/07/04 06:03:38;;;;;;;2.83;1.10;;;;;;;18.38;61.87;97680.66;5026208;28;20562;-66
2022/07/04 06:06:05;;;;;;;2.78;1.30;;;;;;;18.61;62.04;97688.28;5044814;28;20056;-67
2022/07/04 06:08:32;;;;;;;3.47;1.27;;;;;;;18.36;62.31;97682.06;5022635;28;20057;-67
2022/07/04 06:10:59;;;;;;;2.80;1.10;;;;;;;18.56;61.73;97681.78;5039819;28;20056;-67
2022/07/04 06:13:27;;;;;;;3.40;1.30;;;;;;;18.52;61.84;97683.47;5030534;28;20559;-67
2022/07/04 06:15:54;;;;;;;3.33;1.23;;;;;;;18.57;61.25;97680.66;5032148;28;20037;-67
2022/07/04 06:18:20;;;;;;;3.60;1.25;;;;;;;18.63;61.55;97680.56;5032092;28;20068;-66
2022/07/04 06:20:47;;;;;;;3.53;1.65;;;;;;;18.56;61.73;97687.25;5034387;28;20056;-67
2022/07/04 06:23:13;;;;;;;5.53;2.10;;;;;;;18.75;61.72;97682.88;5025145;28;20048;-67
2022/07/04 06:25:40;;;;;;;6.55;1.13;;;;;;;18.90;61.39;97684.56;5021256;28;20046;-66
2022/07/04 06:28:07;;;;;;;3.33;1.10;;;;;;;19.00;60.53;97680.81;5032973;28;20045;-67
2022/07/04 06:30:53;;;;;;;5.22;1.23;;;;;;;19.13;60.41;97685.59;5018574;28;20167;-67
2022/07/04 06:33:20;;;;;;;3.20;1.20;;;;;;;19.22;59.39;97688.44;5034542;28;20045;-67
2022/07/04 06:35:55;;;;;;;2.38;1.10;;;;;;;19.32;59.71;97688.25;5024383;28;20041;-66
2022/07/04 06:38:27;;;;;;;4.38;1.10;;;;;;;19.39;59.28;97690.63;5034349;28;20045;-67
2022/07/04 06:40:58;;;;;;;5.57;1.27;;;;;;;19.40;59.75;97684.00;5033224;28;20049;-67
2022/07/04 06:43:25;;;;;;;3.77;1.10;;;;;;;19.45;58.69;97688.56;5023621;28;20428;-66
2022/07/04 06:45:52;;;;;;;2.85;1.48;;;;;;;19.36;58.00;97689.25;5045101;28;20053;-66
2022/07/04 06:48:19;;;;;;;6.43;1.45;;;;;;;19.28;58.64;97678.19;5036369;28;20430;-66
2022/07/04 06:50:46;;;;;;;3.38;1.58;;;;;;;19.39;59.32;97687.03;5025917;28;20045;-66
2022/07/04 06:53:13;;;;;;;2.60;1.05;;;;;;;19.39;58.41;97689.78;5025835;28;20049;-67
2022/07/04 06:55:41;;;;;;;5.28;1.52;;;;;;;19.01;59.80;97699.72;5024237;28;20102;-66
2022/07/04 06:58:08;;;;;;;2.55;1.35;;;;;;;19.00;60.00;97703.59;5014083;28;20477;-66
2022/07/04 07:00:35;;;;;;;3.85;1.58;;;;;;;18.90;59.92;97699.06;5023827;28;20056;-66
2022/07/04 07:03:03;;;;;;;5.38;1.40;;;;;;;18.82;60.67;97694.25;5036585;28;20052;-66
2022/07/04 07:05:30;;;;;;;6.32;1.55;;;;;;;19.15;59.38;97691.56;5015654;28;20049;-67
2022/07/04 07:08:17;;;;;;;5.15;1.30;;;;;;;19.50;57.37;97699.47;5010425;28;20593;-67
2022/07/04 07:10:43;;;;;;;4.43;1.27;;;;;;;19.68;57.53;97691.47;5019129;28;20409;-67
2022/07/04 07:13:11;;;;;;;2.40;1.10;;;;;;;19.67;57.25;97690.63;5018803;28;20413;-66
2022/07/04 07:15:37;;;;;;;2.53;1.20;;;;;;;19.73;57.53;97688.59;5028147;28;20416;-66
2022/07/04 07:18:04;;;;;;;3.85;1.70;;;;;;;19.62;58.04;97680.59;5044673;28;20049;-66
2022/07/04 07:20:31;;;;;;;3.63;1.50;;;;;;;19.82;56.84;97675.78;5045472;28;20225;-67
2022/07/04 07:23:01;;;;;;;7.13;1.35;;;;;;;19.75;56.89;97681.69;5048759;28;20075;-67
2022/07/04 07:25:27;;;;;;;2.88;1.27;;;;;;;19.75;57.30;97683.59;5033406;28;20038;-67
2022/07/04 07:27:54;;;;;;;3.50;1.40;;;;;;;19.82;57.14;97681.28;5034288;28;20133;-66
2022/07/04 07:30:20;;;;;;;3.28;1.60;;;;;;;19.93;57.29;97683.84;5032033;28;20045;-66
2022/07/04 07:32:47;;;;;;;3.33;1.13;;;;;;;19.68;57.89;97684.00;5024024;28;20101;-66
2022/07/04 07:35:14;;;;;;;3.97;1.20;;;;;;;19.81;58.09;97684.31;5019858;28;20053;-66
2022/07/04 07:37:41;;;;;;;4.22;1.20;;;;;;;19.67;59.31;97678.81;5018272;28;20052;-67
2022/07/04 07:40:09;;;;;;;3.83;1.13;;;;;;;19.67;58.89;97676.06;5011660;28;20276;-66
2022/07/04 07:42:35;;;;;;;2.40;1.25;;;;;;;19.64;58.47;97672.00;5014344;28;20042;-66
2022/07/04 07:45:03;;;;;;;2.58;1.20;;;;;;;19.43;59.25;97674.34;5011268;28;20532;-66
2022/07/04 07:47:29;;;;;;;3.72;1.60;;;;;;;19.71;57.81;97668.84;5010192;28;20509;-66
2022/07/04 07:49:56;;;;;;;5.80;1.60;;;;;;;19.75;57.97;97675.38;5013119;28;20038;-66
2022/07/04 07:52:22;;;;;;;5.72;1.45;;;;;;;19.90;58.54;97668.75;5031079;28;20045;-66
2022/07/04 07:54:53;;;;;;;6.70;1.40;;;;;;;19.98;58.25;97664.50;5014618;28;20057;-66
2022/07/04 07:57:28;;;;;;;5.00;1.67;;;;;;;20.06;57.88;97672.03;5010347;28;20521;-66
2022/07/04 07:59:56;;;;;;;2.55;1.30;;;;;;;19.79;58.75;97675.59;5010715;28;20045;-66
2022/07/04 08:04:34;;;;;;;2.28;1.20;;;;;;;19.85;58.90;97672.44;5010418;28;20076;-66
2022/07/04 08:05:11;;;;;;;4.22;1.30;;;;;;;20.07;58.35;97676.41;5010659;28;20045;-66
2022/07/04 08:07:39;;;;;;;2.97;1.30;;;;;;;20.03;58.14;97678.16;5023199;28;20044;-66
2022/07/04 08:10:08;;;;;;;5.25;1.40;;;;;;;20.16;59.32;97679.22;5030351;28;20041;-66
2022/07/04 08:12:35;;;;;;;4.15;1.48;;;;;;;20.11;58.26;97682.94;5030366;28;20055;-66
2022/07/04 08:15:02;;;;;;;6.10;1.85;;;;;;;19.75;58.90;97675.38;5010784;28;20041;-66
2022/07/04 08:17:33;;;;;;;4.78;1.75;;;;;;;20.19;57.81;97677.84;5010514;28;20449;-66
2022/07/04 08:20:01;;;;;;;5.15;1.60;;;;;;;19.90;58.88;97671.50;5014532;28;20441;-66
2022/07/04 08:22:27;;;;;;;3.17;1.40;;;;;;;19.73;59.26;97675.69;5036170;28;20124;-66
2022/07/04 08:24:54;;;;;;;3.55;1.73;;;;;;;19.89;57.74;97665.22;5022611;28;20041;-66
2022/07/04 08:27:22;;;;;;;5.15;1.50;;;;;;;19.97;57.05;97668.38;5030501;28;20048;-66
2022/07/04 08:29:55;;;;;;;3.30;1.70;;;;;;;20.14;57.56;97663.06;5023447;28;20041;-66
2022/07/04 08:32:22;;;;;;;7.55;1.77;;;;;;;20.24;57.19;97662.00;5048005;28;20041;-66
2022/07/04 08:34:49;;;;;;;4.82;1.80;;;;;;;20.46;57.12;97667.88;5039867;28;20068;-66
2022/07/04 08:37:15;;;;;;;4.18;1.48;;;;;;;20.58;56.20;97656.31;5027947;28;20505;-66
2022/07/04 08:39:42;;;;;;;4.75;1.90;;;;;;;20.81;55.30;97659.91;5029920;28;20060;-66
2022/07/04 08:42:19;;;;;;;3.90;1.80;;;;;;;21.00;54.51;97661.66;5026310;28;20584;-66
2022/07/04 08:44:48;;;;;;;3.33;1.35;;;;;;;20.92;55.32;97658.56;5014917;28;20440;-66
2022/07/04 08:47:24;;;;;;;4.45;1.55;;;;;;;21.15;53.98;97650.28;5009815;28;20070;-67
2022/07/04 08:50:03;;;;;;;3.35;1.60;;;;;;;21.24;54.26;97644.00;5009959;28;20041;-66
2022/07/04 08:52:36;;;;;;;4.55;1.27;;;;;;;21.14;54.53;97642.31;5013486;28;20201;-66
2022/07/04 09:00:37;;;;;;;3.63;1.58;;;;;;;21.54;54.69;97644.31;5020187;28;20048;-66
2022/07/04 09:03:04;;;;;;;6.20;1.60;;;;;;;21.70;54.07;97647.44;5034645;28;20543;-66
2022/07/04 09:05:32;;;;;;;6.15;1.50;;;;;;;21.65;54.39;97653.94;5022190;28;20334;-66
2022/07/04 09:07:59;;;;;;;4.53;1.60;;;;;;;21.11;54.87;97656.75;5030118;28;20536;-66
2022/07/04 09:10:26;;;;;;;4.25;1.45;;;;;;;21.37;54.71;97651.34;5020798;28;20049;-66
2022/07/04 09:12:53;;;;;;;6.38;1.83;;;;;;;21.26;55.19;97658.28;5018972;28;20046;-66
2022/07/04 09:15:37;;;;;;;2.72;1.40;;;;;;;21.64;54.41;97652.28;5022524;28;20049;-66
2022/07/04 09:18:04;;;;;;;4.68;2.33;;;;;;;21.28;54.99;97661.53;5033509;28;20263;-67
2022/07/04 09:20:33;;;;;;;4.68;1.92;;;;;;;20.99;56.03;97665.56;5016450;28;20099;-66
2022/07/04 09:22:59;;;;;;;3.00;1.45;;;;;;;21.00;57.44;97672.69;5025424;28;20064;-66
2022/07/04 09:25:26;;;;;;;3.15;1.75;;;;;;;20.79;55.85;97673.19;5047006;28;20124;-66
2022/07/04 09:27:55;;;;;;;5.78;1.70;;;;;;;21.08;55.80;97671.94;5026222;28;20046;-66
2022/07/04 09:30:24;;;;;;;8.75;3.03;;;;;;;21.24;55.30;97669.63;5020836;28;20124;-67
2022/07/04 09:32:59;;;;;;;3.35;1.30;;;;;;;21.43;54.22;97666.63;5025027;28;20057;-66
2022/07/04 09:35:29;;;;;;;2.80;1.35;;;;;;;21.65;53.08;97664.94;5025040;28;20084;-66
2022/07/04 09:38:01;;;;;;;3.40;1.30;;;;;;;21.92;51.39;97668.63;5024957;28;20060;-66
2022/07/04 09:40:30;;;;;;;5.45;1.65;;;;;;;22.11;52.32;97663.97;5036028;28;20497;-67
2022/07/04 09:43:11;;;;;;;4.82;1.30;;;;;;;22.16;52.52;97661.88;5018006;28;20095;-66
2022/07/04 09:45:57;;;;;;;4.63;1.42;;;;;;;22.21;50.82;97672.75;5023564;28;20050;-66
2022/07/04 09:48:24;;;;;;;3.42;1.42;;;;;;;22.19;51.70;97669.50;5033818;28;20053;-66
2022/07/04 09:50:51;;;;;;;2.70;1.40;;;;;;;22.22;51.25;97670.78;5046071;28;20063;-67
2022/07/04 09:53:18;;;;;;;4.25;1.20;;;;;;;22.34;50.46;97672.94;5046235;28;20053;-66
2022/07/04 09:55:49;;;;;;;3.78;1.60;;;;;;;22.24;50.13;97668.53;5021817;28;20049;-66
2022/07/04 09:58:16;;;;;;;3.33;1.55;;;;;;;22.42;50.20;97674.91;5039331;28;20053;-66
2022/07/04 10:00:44;;;;;;;4.05;1.42;;;;;;;22.76;49.16;97678.00;5033873;28;20048;-66
2022/07/04 10:03:28;;;;;;;2.58;1.50;;;;;;;22.77;48.09;97679.63;5016829;28;20060;-67
2022/07/04 10:06:06;;;;;;;1.92;1.10;;;;;;;23.05;47.70;97675.69;5016579;28;20049;-66
2022/07/04 10:08:33;;;;;;;6.05;1.80;;;;;;;23.06;47.52;97686.41;5016805;28;20049;-66
2022/07/04 10:11:02;;;;;;;3.58;1.33;;;;;;;22.94;47.65;97676.06;5013983;28;20049;-66
2022/07/04 10:13:35;;;;;;;4.45;1.80;;;;;;;23.11;47.92;97680.72;5035564;28;20076;-67
2022/07/04 10:16:02;;;;;;;9.18;2.10;;;;;;;23.21;46.61;97673.22;5017312;28;20037;-66
2022/07/04 10:18:29;;;;;;;2.88;1.30;;;;;;;23.22;47.34;97678.41;5018800;28;20054;-67
2022/07/04 10:20:56;;;;;;;4.82;1.42;;;;;;;23.38;47.40;97675.19;5039173;28;20385;-67
2022/07/04 10:23:29;;;;;;;4.05;1.70;;;;;;;23.20;48.17;97674.38;5028803;28;20124;-67
2022/07/04 10:25:56;;;;;;;3.80;2.05;;;;;;;23.04;48.67;97671.31;5035571;28;20041;-66
2022/07/04 10:28:23;;;;;;;4.70;1.38;;;;;;;23.25;47.42;97683.28;5045103;28;20528;-67
2022/07/04 10:30:52;;;;;;;2.55;1.27;;;;;;;23.34;46.28;97679.72;5045719;28;20040;-66
2022/07/04 10:33:25;;;;;;;6.63;1.50;;;;;;;23.10;47.73;97678.28;5025283;28;20077;-66
2022/07/04 10:35:55;;;;;;;2.53;1.20;;;;;;;23.38;46.41;97686.22;5029751;28;20045;-66
2022/07/04 10:38:27;;;;;;;3.85;1.23;;;;;;;22.88;48.73;97673.78;5026042;28;20080;-66
2022/07/04 10:40:56;;;;;;;4.97;1.48;;;;;;;23.28;47.62;97670.78;5025605;28;20501;-66
2022/07/04 10:43:37;;;;;;;4.78;1.63;;;;;;;22.96;47.56;97668.25;5022088;28;20048;-67
2022/07/04 10:46:13;;;;;;;5.68;2.03;;;;;;;23.37;46.66;97673.56;5028365;28;20044;-66
2022/07/04 10:48:53;;;;;;;3.72;1.30;;;;;;;23.55;47.56;97670.72;5020071;28;20072;-66
2022/07/04 10:51:52;;;;;;;2.83;1.35;;;;;;;23.92;45.47;97668.31;5037362;28;20037;-67
2022/07/04 10:54:31;;;;;;;3.70;1.23;;;;;;;23.35;46.88;97668.34;5024123;28;20428;-66
2022/07/04 10:57:11;;;;;;;7.38;1.42;;;;;;;23.82;46.35;97657.59;5017528;28;20368;-66
2022/07/04 10:59:38;;;;;;;3.78;1.38;;;;;;;24.15;45.28;97666.06;5033557;28;20064;-66
2022/07/04 11:02:08;;;;;;;3.08;1.20;;;;;;;24.59;44.51;97662.19;5021730;28;20056;-66
2022/07/04 11:04:58;;;;;;;4.35;1.35;;;;;;;24.67;44.74;97660.50;5023464;28;20112;-66
2022/07/04 11:07:30;;;;;;;3.20;1.30;;;;;;;24.87;44.14;97660.84;5016919;28;20073;-66
2022/07/04 11:10:21;;;;;;;5.85;1.58;;;;;;;24.92;43.72;97663.41;5037861;28;20033;-67
2022/07/04 11:12:53;;;;;;;2.60;1.23;;;;;;;24.63;44.59;97651.25;5021201;28;20046;-66
2022/07/04 11:15:27;;;;;;;3.30;1.30;;;;;;;24.43;44.31;97648.13;5033176;28;20061;-66
2022/07/04 11:17:58;;;;;;;6.03;1.20;;;;;;;24.39;44.62;97653.53;5031840;28;20056;-67
2022/07/04 11:20:28;;;;;;;3.30;1.25;;;;;;;24.43;44.49;97645.34;5014600;28;20053;-66
2022/07/04 11:23:12;;;;;;;2.83;1.40;;;;;;;24.57;43.77;97644.31;5024497;28;20519;-66
2022/07/04 11:25:41;;;;;;;2.83;1.30;;;;;;;24.80;44.04;97640.00;5034225;28;20042;-66
2022/07/04 11:28:19;;;;;;;2.00;1.30;;;;;;;25.06;43.96;97650.03;5034865;28;20044;-66
2022/07/04 11:31:06;;;;;;;5.35;1.20;;;;;;;25.33;42.16;97633.94;5028962;28;20045;-66
2022/07/04 11:33:34;;;;;;;4.38;1.02;;;;;;;25.55;41.35;97647.72;5029722;28;20042;-66
2022/07/04 11:36:10;;;;;;;3.45;1.23;;;;;;;25.67;41.65;97641.41;5051074;28;20052;-66
2022/07/04 11:39:04;;;;;;;3.55;1.38;;;;;;;25.83;41.73;97634.00;5032620;28;20559;-67
2022/07/04 11:47:16;;;;;;;6.75;1.30;;;;;;;26.02;41.11;97629.81;5046720;28;20048;-66
2022/07/04 11:49:44;;;;;;;4.65;1.38;;;;;;;25.98;40.79;97623.34;5034486;28;20041;-66
2022/07/04 11:52:11;;;;;;;4.32;1.50;;;;;;;25.62;41.56;97614.72;5041530;28;20049;-66
2022/07/04 11:54:46;;;;;;;5.15;1.58;;;;;;;25.71;40.66;97612.66;5017869;28;20285;-67
2022/07/04 11:57:26;;;;;;;5.90;1.75;;;;;;;25.20;42.40;97607.38;5031443;28;20096;-67
2022/07/04 11:59:58;;;;;;;3.92;1.50;;;;;;;25.54;41.55;97607.31;5039276;28;20124;-66